sensor_id;sensor_type;location;lat;lon;timestamp;pressure;altitude;pressure_sealevel;temperature;humidity
37206;BME280;23099;42.636;23.198;2023-06-22T00:01:33;92529.38;;;15.81;98.03
37206;BME280;23099;42.636;23.198;2023-06-22T00:04:00;92527.00;;;15.69;97.79
37206;BME280;23099;42.636;23.198;2023-06-22T00:06:27;92522.03;;;15.71;98.49
37206;BME280;23099;42.636;23.198;2023-06-22T00:08:53;92525.88;;;15.70;100.00
37206;BME280;23099;42.636;23.198;2023-06-22T00:11:21;92523.94;;;15.71;99.86
37206;BME280;23099;42.636;23.198;2023-06-22T00:13:48;92520.84;;;15.69;100.00
37206;BME280;23099;42.636;23.198;2023-06-22T00:16:16;92515.47;;;15.69;100.00
37206;BME280;23099;42.636;23.198;2023-06-22T00:18:43;92505.41;;;15.59;100.00
37206;BME280;23099;42.636;23.198;2023-06-22T00:21:12;92506.16;;;15.59;100.00
37206;BME280;23099;42.636;23.198;2023-06-22T00:23:39;92501.91;;;15.54;100.00
37206;BME280;23099;42.636;23.198;2023-06-22T00:26:06;92494.56;;;15.51;100.00
37206;BME280;23099;42.636;23.198;2023-06-22T00:28:35;92492.63;;;15.48;100.00
37206;BME280;23099;42.636;23.198;2023-06-22T00:31:01;92491.50;;;15.53;100.00
37206;BME280;23099;42.636;23.198;2023-06-22T00:33:28;92481.56;;;15.57;100.00
37206;BME280;23099;42.636;23.198;2023-06-22T00:35:55;92488.44;;;15.54;100.00
37206;BME280;23099;42.636;23.198;2023-06-22T00:38:21;92483.78;;;15.51;100.00
37206;BME280;23099;42.636;23.198;2023-06-22T00:40:48;92481.09;;;15.48;100.00
37206;BME280;23099;42.636;23.198;2023-06-22T00:43:15;92481.09;;;15.48;100.00
37206;BME280;23099;42.636;23.198;2023-06-22T00:45:43;92489.91;;;15.45;100.00
37206;BME280;23099;42.636;23.198;2023-06-22T00:48:10;92493.00;;;15.43;100.00
37206;BME280;23099;42.636;23.198;2023-06-22T00:50:38;92487.56;;;15.36;100.00
37206;BME280;23099;42.636;23.198;2023-06-22T00:53:07;92485.63;;;15.33;99.87
37206;BME280;23099;42.636;23.198;2023-06-22T00:55:35;92483.69;;;15.27;100.00
37206;BME280;23099;42.636;23.198;2023-06-22T00:58:04;92479.81;;;15.20;100.00
37206;BME280;23099;42.636;23.198;2023-06-22T01:00:33;92482.13;;;15.22;100.00
37206;BME280;23099;42.636;23.198;2023-06-22T01:03:02;92479.78;;;15.17;100.00
37206;BME280;23099;42.636;23.198;2023-06-22T01:05:29;92489.41;;;15.18;100.00
37206;BME280;23099;42.636;23.198;2023-06-22T01:08:07;92497.47;;;15.18;100.00
37206;BME280;23099;42.636;23.198;2023-06-22T01:10:41;92491.66;;;15.09;100.00
37206;BME280;23099;42.636;23.198;2023-06-22T01:13:16;92490.13;;;15.15;100.00
37206;BME280;23099;42.636;23.198;2023-06-22T01:15:49;92499.03;;;15.23;100.00
37206;BME280;23099;42.636;23.198;2023-06-22T01:18:20;92499.84;;;15.30;100.00
37206;BME280;23099;42.636;23.198;2023-06-22T01:20:52;92492.56;;;15.34;100.00
37206;BME280;23099;42.636;23.198;2023-06-22T01:23:26;92492.59;;;15.38;100.00
37206;BME280;23099;42.636;23.198;2023-06-22T01:25:59;92488.38;;;15.40;100.00
37206;BME280;23099;42.636;23.198;2023-06-22T01:28:41;92490.69;;;15.42;100.00
37206;BME280;23099;42.636;23.198;2023-06-22T01:31:10;92501.38;;;15.31;100.00
37206;BME280;23099;42.636;23.198;2023-06-22T01:33:41;92497.56;;;15.32;100.00
37206;BME280;23099;42.636;23.198;2023-06-22T01:36:10;92496.78;;;15.28;100.00
37206;BME280;23099;42.636;23.198;2023-06-22T01:38:37;92493.31;;;15.28;100.00
37206;BME280;23099;42.636;23.198;2023-06-22T01:41:04;92507.56;;;15.28;100.00
37206;BME280;23099;42.636;23.198;2023-06-22T01:43:31;92501.75;;;15.30;100.00
37206;BME280;23099;42.636;23.198;2023-06-22T01:46:03;92505.22;;;15.23;100.00
37206;BME280;23099;42.636;23.198;2023-06-22T01:48:31;92504.06;;;15.24;100.00
37206;BME280;23099;42.636;23.198;2023-06-22T01:50:58;92508.66;;;15.20;100.00
37206;BME280;23099;42.636;23.198;2023-06-22T01:53:25;92508.25;;;15.14;100.00
37206;BME280;23099;42.636;23.198;2023-06-22T01:55:52;92502.00;;;15.00;100.00
37206;BME280;23099;42.636;23.198;2023-06-22T01:58:20;92507.38;;;15.03;100.00
37206;BME280;23099;42.636;23.198;2023-06-22T02:00:48;92515.09;;;15.05;100.00
37206;BME280;23099;42.636;23.198;2023-06-22T02:03:20;92518.94;;;15.04;100.00
37206;BME280;23099;42.636;23.198;2023-06-22T02:05:50;92518.94;;;15.04;100.00
37206;BME280;23099;42.636;23.198;2023-06-22T02:08:20;92520.06;;;15.03;100.00
37206;BME280;23099;42.636;23.198;2023-06-22T02:10:49;92531.28;;;15.08;100.00
37206;BME280;23099;42.636;23.198;2023-06-22T02:13:17;92523.91;;;15.02;100.00
37206;BME280;23099;42.636;23.198;2023-06-22T02:15:45;92528.22;;;15.10;100.00
37206;BME280;23099;42.636;23.198;2023-06-22T02:18:12;92509.75;;;15.12;100.00
37206;BME280;23099;42.636;23.198;2023-06-22T02:20:41;92508.97;;;15.08;100.00
37206;BME280;23099;42.636;23.198;2023-06-22T02:23:07;92501.81;;;14.75;100.00
37206;BME280;23099;42.636;23.198;2023-06-22T02:25:35;92507.59;;;14.77;100.00
37206;BME280;23099;42.636;23.198;2023-06-22T02:28:02;92510.66;;;14.75;100.00
37206;BME280;23099;42.636;23.198;2023-06-22T02:30:28;92505.72;;;14.81;100.00
37206;BME280;23099;42.636;23.198;2023-06-22T02:32:55;92511.81;;;14.74;100.00
37206;BME280;23099;42.636;23.198;2023-06-22T02:35:25;92510.31;;;14.80;100.00
37206;BME280;23099;42.636;23.198;2023-06-22T02:37:53;92514.97;;;14.83;100.00
37206;BME280;23099;42.636;23.198;2023-06-22T02:40:20;92513.41;;;14.82;100.00
37206;BME280;23099;42.636;23.198;2023-06-22T02:42:46;92521.00;;;14.73;100.00
37206;BME280;23099;42.636;23.198;2023-06-22T02:45:13;92509.16;;;14.78;100.00
37206;BME280;23099;42.636;23.198;2023-06-22T02:47:40;92516.00;;;14.72;100.00
37206;BME280;23099;42.636;23.198;2023-06-22T02:50:07;92517.91;;;14.68;100.00
37206;BME280;23099;42.636;23.198;2023-06-22T02:52:34;92516.41;;;14.70;100.00
37206;BME280;23099;42.636;23.198;2023-06-22T02:55:03;92507.94;;;14.68;100.00
37206;BME280;23099;42.636;23.198;2023-06-22T02:57:29;92511.03;;;14.74;100.00
37206;BME280;23099;42.636;23.198;2023-06-22T02:59:56;92511.03;;;14.74;100.00
37206;BME280;23099;42.636;23.198;2023-06-22T03:02:23;92512.97;;;14.77;100.00
37206;BME280;23099;42.636;23.198;2023-06-22T03:04:51;92509.53;;;14.80;100.00
37206;BME280;23099;42.636;23.198;2023-06-22T03:07:19;92512.63;;;14.82;100.00
37206;BME280;23099;42.636;23.198;2023-06-22T03:09:45;92521.13;;;14.84;100.00
37206;BME280;23099;42.636;23.198;2023-06-22T03:12:14;92524.22;;;14.90;100.00
37206;BME280;23099;42.636;23.198;2023-06-22T03:14:40;92518.44;;;14.88;100.00
37206;BME280;23099;42.636;23.198;2023-06-22T03:17:07;92526.50;;;14.84;100.00
37206;BME280;23099;42.636;23.198;2023-06-22T03:19:33;92532.25;;;14.82;100.00
37206;BME280;23099;42.636;23.198;2023-06-22T03:22:00;92533.03;;;14.83;100.00
37206;BME280;23099;42.636;23.198;2023-06-22T03:24:27;92527.28;;;14.84;100.00
37206;BME280;23099;42.636;23.198;2023-06-22T03:26:55;92523.44;;;14.85;100.00
37206;BME280;23099;42.636;23.198;2023-06-22T03:29:23;92531.50;;;14.89;100.00
37206;BME280;23099;42.636;23.198;2023-06-22T03:31:50;92536.16;;;14.92;100.00
37206;BME280;23099;42.636;23.198;2023-06-22T03:34:17;92536.16;;;14.92;100.00
37206;BME280;23099;42.636;23.198;2023-06-22T03:36:44;92541.13;;;14.90;100.00
37206;BME280;23099;42.636;23.198;2023-06-22T03:39:11;92537.34;;;14.95;100.00
37206;BME280;23099;42.636;23.198;2023-06-22T03:41:38;92541.97;;;14.98;100.00
37206;BME280;23099;42.636;23.198;2023-06-22T03:44:05;92543.56;;;15.06;100.00
37206;BME280;23099;42.636;23.198;2023-06-22T03:46:33;92547.47;;;15.12;100.00
37206;BME280;23099;42.636;23.198;2023-06-22T03:48:59;92555.13;;;15.10;100.00
37206;BME280;23099;42.636;23.198;2023-06-22T03:51:28;92559.75;;;15.09;100.00
37206;BME280;23099;42.636;23.198;2023-06-22T03:53:55;92561.28;;;15.10;100.00
37206;BME280;23099;42.636;23.198;2023-06-22T03:56:21;92563.25;;;15.17;100.00
37206;BME280;23099;42.636;23.198;2023-06-22T03:58:48;92562.47;;;15.16;100.00
37206;BME280;23099;42.636;23.198;2023-06-22T04:01:15;92564.81;;;15.21;100.00
37206;BME280;23099;42.636;23.198;2023-06-22T04:03:43;92553.31;;;15.25;100.00
37206;BME280;23099;42.636;23.198;2023-06-22T04:06:10;92558.31;;;15.30;100.00
37206;BME280;23099;42.636;23.198;2023-06-22T04:08:37;92552.97;;;15.33;100.00
37206;BME280;23099;42.636;23.198;2023-06-22T04:11:03;92543.34;;;15.32;100.00
37206;BME280;23099;42.636;23.198;2023-06-22T04:13:30;92540.66;;;15.36;100.00
37206;BME280;23099;42.636;23.198;2023-06-22T04:15:57;92535.72;;;15.41;100.00
37206;BME280;23099;42.636;23.198;2023-06-22T04:18:23;92529.94;;;15.43;100.00
37206;BME280;23099;42.636;23.198;2023-06-22T04:20:51;92535.72;;;15.41;100.00
37206;BME280;23099;42.636;23.198;2023-06-22T04:23:18;92537.25;;;15.42;100.00
37206;BME280;23099;42.636;23.198;2023-06-22T04:25:45;92533.41;;;15.43;100.00
37206;BME280;23099;42.636;23.198;2023-06-22T04:28:11;92528.41;;;15.49;100.00
37206;BME280;23099;42.636;23.198;2023-06-22T04:30:38;92511.47;;;15.48;100.00
37206;BME280;23099;42.636;23.198;2023-06-22T04:33:11;92526.19;;;15.62;100.00
37206;BME280;23099;42.636;23.198;2023-06-22T04:35:38;92529.34;;;15.71;100.00
37206;BME280;23099;42.636;23.198;2023-06-22T04:38:08;92532.78;;;15.75;100.00
37206;BME280;23099;42.636;23.198;2023-06-22T04:40:34;92529.72;;;15.76;100.00
37206;BME280;23099;42.636;23.198;2023-06-22T04:43:01;92537.47;;;15.81;100.00
37206;BME280;23099;42.636;23.198;2023-06-22T04:45:29;92540.94;;;15.85;100.00
37206;BME280;23099;42.636;23.198;2023-06-22T04:47:55;92551.72;;;15.85;100.00
37206;BME280;23099;42.636;23.198;2023-06-22T04:50:22;92544.44;;;15.93;100.00
37206;BME280;23099;42.636;23.198;2023-06-22T04:52:49;92554.84;;;15.98;100.00
37206;BME280;23099;42.636;23.198;2023-06-22T04:55:19;92561.03;;;16.06;100.00
37206;BME280;23099;42.636;23.198;2023-06-22T04:57:47;92555.28;;;16.14;100.00
37206;BME280;23099;42.636;23.198;2023-06-22T05:00:15;92539.09;;;16.11;100.00
37206;BME280;23099;42.636;23.198;2023-06-22T05:02:43;92554.16;;;16.26;100.00
37206;BME280;23099;42.636;23.198;2023-06-22T05:05:11;92556.09;;;16.33;100.00
37206;BME280;23099;42.636;23.198;2023-06-22T05:07:40;92552.66;;;16.43;100.00
37206;BME280;23099;42.636;23.198;2023-06-22T05:10:09;92553.06;;;16.52;100.00
37206;BME280;23099;42.636;23.198;2023-06-22T05:12:38;92546.91;;;16.58;100.00
37206;BME280;23099;42.636;23.198;2023-06-22T05:15:07;92551.94;;;16.67;100.00
37206;BME280;23099;42.636;23.198;2023-06-22T05:17:34;92556.56;;;16.77;100.00
37206;BME280;23099;42.636;23.198;2023-06-22T05:20:00;92556.59;;;16.81;100.00
37206;BME280;23099;42.636;23.198;2023-06-22T05:22:28;92551.59;;;16.86;100.00
37206;BME280;23099;42.636;23.198;2023-06-22T05:24:54;92550.78;;;16.93;100.00
37206;BME280;23099;42.636;23.198;2023-06-22T05:27:21;92545.78;;;17.02;100.00
37206;BME280;23099;42.636;23.198;2023-06-22T05:29:49;92546.53;;;17.10;100.00
37206;BME280;23099;42.636;23.198;2023-06-22T05:32:16;92545.38;;;17.18;100.00
37206;BME280;23099;42.636;23.198;2023-06-22T05:34:42;92548.47;;;17.30;100.00
37206;BME280;23099;42.636;23.198;2023-06-22T05:37:09;92553.84;;;17.38;100.00
37206;BME280;23099;42.636;23.198;2023-06-22T05:39:36;92546.88;;;17.47;100.00
37206;BME280;23099;42.636;23.198;2023-06-22T05:42:05;92562.31;;;17.54;100.00
37206;BME280;23099;42.636;23.198;2023-06-22T05:44:32;92562.28;;;17.61;100.00
37206;BME280;23099;42.636;23.198;2023-06-22T05:47:00;92566.16;;;17.67;100.00
37206;BME280;23099;42.636;23.198;2023-06-22T05:49:28;92568.84;;;17.78;100.00
37206;BME280;23099;42.636;23.198;2023-06-22T05:51:58;92572.31;;;17.85;100.00
37206;BME280;23099;42.636;23.198;2023-06-22T05:54:25;92573.03;;;17.93;99.90
37206;BME280;23099;42.636;23.198;2023-06-22T05:56:51;92578.44;;;18.00;99.31
37206;BME280;23099;42.636;23.198;2023-06-22T05:59:18;92578.78;;;18.09;98.86
37206;BME280;23099;42.636;23.198;2023-06-22T06:01:45;92569.06;;;18.19;97.39
37206;BME280;23099;42.636;23.198;2023-06-22T06:04:16;92569.03;;;18.26;97.16
37206;BME280;23099;42.636;23.198;2023-06-22T06:06:43;92574.81;;;18.31;97.80
37206;BME280;23099;42.636;23.198;2023-06-22T06:09:10;92571.28;;;18.38;96.69
37206;BME280;23099;42.636;23.198;2023-06-22T06:11:37;92566.19;;;18.51;95.70
37206;BME280;23099;42.636;23.198;2023-06-22T06:14:04;92563.81;;;18.63;96.00
37206;BME280;23099;42.636;23.198;2023-06-22T06:16:30;92571.13;;;18.74;96.40
37206;BME280;23099;42.636;23.198;2023-06-22T06:18:58;92569.50;;;18.83;95.62
37206;BME280;23099;42.636;23.198;2023-06-22T06:21:26;92563.63;;;18.95;94.47
37206;BME280;23099;42.636;23.198;2023-06-22T06:23:52;92566.63;;;19.04;94.76
37206;BME280;23099;42.636;23.198;2023-06-22T06:26:19;92559.22;;;19.12;96.22
37206;BME280;23099;42.636;23.198;2023-06-22T06:28:55;92562.97;;;19.29;94.54
37206;BME280;23099;42.636;23.198;2023-06-22T06:31:22;92561.31;;;19.38;93.96
37206;BME280;23099;42.636;23.198;2023-06-22T06:33:49;92570.16;;;19.50;95.75
37206;BME280;23099;42.636;23.198;2023-06-22T06:36:15;92560.78;;;19.58;96.13
37206;BME280;23099;42.636;23.198;2023-06-22T06:38:43;92564.16;;;19.69;97.68
37206;BME280;23099;42.636;23.198;2023-06-22T06:41:12;92561.69;;;19.82;98.54
37206;BME280;23099;42.636;23.198;2023-06-22T06:43:39;92554.25;;;19.89;98.08
37206;BME280;23099;42.636;23.198;2023-06-22T06:46:05;92560.75;;;19.95;98.07
37206;BME280;23099;42.636;23.198;2023-06-22T06:48:32;92566.44;;;20.08;97.57
37206;BME280;23099;42.636;23.198;2023-06-22T06:50:59;92549.66;;;20.17;95.51
37206;BME280;23099;42.636;23.198;2023-06-22T06:53:25;92549.84;;;20.33;95.55
37206;BME280;23099;42.636;23.198;2023-06-22T06:55:55;92547.75;;;20.48;96.04
37206;BME280;23099;42.636;23.198;2023-06-22T06:58:21;92552.63;;;20.60;96.17
37206;BME280;23099;42.636;23.198;2023-06-22T07:00:48;92550.19;;;20.65;97.30
37206;BME280;23099;42.636;23.198;2023-06-22T07:03:15;92546.50;;;20.79;97.32
37206;BME280;23099;42.636;23.198;2023-06-22T07:05:41;92549.09;;;20.90;97.39
37206;BME280;23099;42.636;23.198;2023-06-22T07:08:08;92554.75;;;20.99;96.59
37206;BME280;23099;42.636;23.198;2023-06-22T07:10:35;92542.59;;;21.07;97.61
37206;BME280;23099;42.636;23.198;2023-06-22T07:13:03;92549.47;;;21.15;98.38
37206;BME280;23099;42.636;23.198;2023-06-22T07:15:29;92548.19;;;21.23;98.87
37206;BME280;23099;42.636;23.198;2023-06-22T07:17:56;92557.72;;;21.35;98.84
37206;BME280;23099;42.636;23.198;2023-06-22T07:20:23;92550.91;;;21.46;98.54
37206;BME280;23099;42.636;23.198;2023-06-22T07:22:51;92550.38;;;21.55;97.74
37206;BME280;23099;42.636;23.198;2023-06-22T07:25:18;92553.25;;;21.68;97.69
37206;BME280;23099;42.636;23.198;2023-06-22T07:27:45;92546.88;;;21.78;96.82
37206;BME280;23099;42.636;23.198;2023-06-22T07:30:14;92544.72;;;21.89;95.03
37206;BME280;23099;42.636;23.198;2023-06-22T07:32:41;92555.75;;;22.02;95.01
37206;BME280;23099;42.636;23.198;2023-06-22T07:35:08;92553.66;;;22.09;94.48
37206;BME280;23099;42.636;23.198;2023-06-22T07:37:36;92553.47;;;22.20;94.50
37206;BME280;23099;42.636;23.198;2023-06-22T07:40:03;92550.19;;;22.29;88.99
37206;BME280;23099;42.636;23.198;2023-06-22T07:42:32;92561.25;;;22.38;87.34
37206;BME280;23099;42.636;23.198;2023-06-22T07:44:59;92560.13;;;22.55;89.00
37206;BME280;23099;42.636;23.198;2023-06-22T07:47:28;92564.16;;;22.67;88.61
37206;BME280;23099;42.636;23.198;2023-06-22T07:49:55;92566.69;;;22.77;90.47
37206;BME280;23099;42.636;23.198;2023-06-22T07:52:23;92557.84;;;22.89;90.87
37206;BME280;23099;42.636;23.198;2023-06-22T07:54:51;92559.56;;;23.00;87.66
37206;BME280;23099;42.636;23.198;2023-06-22T07:57:17;92552.94;;;23.01;86.91
37206;BME280;23099;42.636;23.198;2023-06-22T07:59:44;92558.66;;;23.06;88.01
37206;BME280;23099;42.636;23.198;2023-06-22T08:02:11;92552.31;;;23.09;88.91
37206;BME280;23099;42.636;23.198;2023-06-22T08:04:39;92559.16;;;23.01;88.40
37206;BME280;23099;42.636;23.198;2023-06-22T08:07:06;92555.38;;;22.95;90.05
37206;BME280;23099;42.636;23.198;2023-06-22T08:09:33;92551.63;;;22.89;90.69
37206;BME280;23099;42.636;23.198;2023-06-22T08:12:00;92545.56;;;22.81;93.19
37206;BME280;23099;42.636;23.198;2023-06-22T08:14:27;92549.75;;;22.86;91.21
37206;BME280;23099;42.636;23.198;2023-06-22T08:16:54;92549.41;;;22.84;92.26
37206;BME280;23099;42.636;23.198;2023-06-22T08:19:21;92553.06;;;22.77;90.36
37206;BME280;23099;42.636;23.198;2023-06-22T08:21:49;92551.31;;;22.67;91.46
37206;BME280;23099;42.636;23.198;2023-06-22T08:24:15;92548.31;;;22.62;93.03
37206;BME280;23099;42.636;23.198;2023-06-22T08:26:42;92545.94;;;22.64;93.18
37206;BME280;23099;42.636;23.198;2023-06-22T08:29:09;92538.72;;;22.73;93.01
37206;BME280;23099;42.636;23.198;2023-06-22T08:31:36;92543.25;;;22.80;90.40
37206;BME280;23099;42.636;23.198;2023-06-22T08:34:02;92527.09;;;22.89;90.96
37206;BME280;23099;42.636;23.198;2023-06-22T08:36:29;92534.88;;;23.07;89.61
37206;BME280;23099;42.636;23.198;2023-06-22T08:38:59;92540.91;;;23.14;88.29
37206;BME280;23099;42.636;23.198;2023-06-22T08:41:26;92550.47;;;23.22;88.64
37206;BME280;23099;42.636;23.198;2023-06-22T08:43:53;92549.03;;;23.34;89.91
37206;BME280;23099;42.636;23.198;2023-06-22T08:46:20;92548.41;;;23.43;88.22
37206;BME280;23099;42.636;23.198;2023-06-22T08:48:48;92540.81;;;23.50;85.34
37206;BME280;23099;42.636;23.198;2023-06-22T08:51:15;92550.38;;;23.58;84.54
37206;BME280;23099;42.636;23.198;2023-06-22T08:53:42;92542.97;;;23.59;84.48
37206;BME280;23099;42.636;23.198;2023-06-22T08:56:11;92541.91;;;23.69;84.01
37206;BME280;23099;42.636;23.198;2023-06-22T08:58:38;92543.03;;;23.72;80.46
37206;BME280;23099;42.636;23.198;2023-06-22T09:01:05;92529.28;;;23.75;80.91
37206;BME280;23099;42.636;23.198;2023-06-22T09:03:32;92531.16;;;23.78;82.39
37206;BME280;23099;42.636;23.198;2023-06-22T09:06:01;92529.22;;;23.79;81.39
37206;BME280;23099;42.636;23.198;2023-06-22T09:08:28;92536.84;;;23.84;79.81
37206;BME280;23099;42.636;23.198;2023-06-22T09:10:55;92528.50;;;23.91;78.39
37206;BME280;23099;42.636;23.198;2023-06-22T09:13:23;92539.63;;;23.96;78.93
37206;BME280;23099;42.636;23.198;2023-06-22T09:15:49;92539.19;;;23.98;78.63
37206;BME280;23099;42.636;23.198;2023-06-22T09:18:17;92533.22;;;24.03;77.23
37206;BME280;23099;42.636;23.198;2023-06-22T09:20:45;92531.16;;;24.07;79.24
37206;BME280;23099;42.636;23.198;2023-06-22T09:23:11;92529.34;;;24.17;77.37
37206;BME280;23099;42.636;23.198;2023-06-22T09:25:38;92532.66;;;24.24;78.52
37206;BME280;23099;42.636;23.198;2023-06-22T09:28:05;92536.72;;;24.33;76.52
37206;BME280;23099;42.636;23.198;2023-06-22T09:30:34;92536.84;;;24.42;77.38
37206;BME280;23099;42.636;23.198;2023-06-22T09:33:00;92538.19;;;24.50;78.97
37206;BME280;23099;42.636;23.198;2023-06-22T09:35:27;92539.94;;;24.56;79.79
37206;BME280;23099;42.636;23.198;2023-06-22T09:37:54;92544.19;;;24.57;74.28
37206;BME280;23099;42.636;23.198;2023-06-22T09:40:21;92551.78;;;24.66;73.06
37206;BME280;23099;42.636;23.198;2023-06-22T09:42:47;92538.66;;;24.74;75.32
37206;BME280;23099;42.636;23.198;2023-06-22T09:45:14;92533.41;;;24.79;75.80
37206;BME280;23099;42.636;23.198;2023-06-22T09:47:42;92542.59;;;24.85;76.50
37206;BME280;23099;42.636;23.198;2023-06-22T09:50:09;92545.66;;;24.87;68.38
37206;BME280;23099;42.636;23.198;2023-06-22T09:52:35;92543.16;;;24.93;69.06
37206;BME280;23099;42.636;23.198;2023-06-22T09:55:03;92542.84;;;25.04;67.92
37206;BME280;23099;42.636;23.198;2023-06-22T09:57:30;92543.59;;;25.17;65.77
37206;BME280;23099;42.636;23.198;2023-06-22T09:59:57;92536.16;;;25.30;68.82
37206;BME280;23099;42.636;23.198;2023-06-22T10:02:23;92533.53;;;25.39;72.40
37206;BME280;23099;42.636;23.198;2023-06-22T10:04:51;92531.19;;;25.50;73.14
37206;BME280;23099;42.636;23.198;2023-06-22T10:07:18;92530.44;;;25.62;68.70
37206;BME280;23099;42.636;23.198;2023-06-22T10:09:44;92537.44;;;25.63;68.13
37206;BME280;23099;42.636;23.198;2023-06-22T10:12:11;92535.53;;;25.73;65.96
37206;BME280;23099;42.636;23.198;2023-06-22T10:14:38;92531.22;;;25.85;63.51
37206;BME280;23099;42.636;23.198;2023-06-22T10:17:05;92529.78;;;25.93;65.34
37206;BME280;23099;42.636;23.198;2023-06-22T10:19:32;92520.75;;;26.05;66.95
37206;BME280;23099;42.636;23.198;2023-06-22T10:22:04;92519.78;;;25.99;66.78
37206;BME280;23099;42.636;23.198;2023-06-22T10:24:30;92522.47;;;26.12;66.92
37206;BME280;23099;42.636;23.198;2023-06-22T10:26:57;92520.38;;;26.16;67.14
37206;BME280;23099;42.636;23.198;2023-06-22T10:29:24;92518.47;;;26.25;61.67
37206;BME280;23099;42.636;23.198;2023-06-22T10:31:51;92521.72;;;26.33;59.07
37206;BME280;23099;42.636;23.198;2023-06-22T10:34:17;92518.97;;;26.55;62.92
37206;BME280;23099;42.636;23.198;2023-06-22T10:36:44;92517.19;;;26.61;58.99
37206;BME280;23099;42.636;23.198;2023-06-22T10:39:15;92510.41;;;26.74;59.67
37206;BME280;23099;42.636;23.198;2023-06-22T10:41:41;92513.94;;;26.84;59.66
37206;BME280;23099;42.636;23.198;2023-06-22T10:44:08;92504.22;;;26.92;61.14
37206;BME280;23099;42.636;23.198;2023-06-22T10:46:35;92500.22;;;27.15;60.85
37206;BME280;23099;42.636;23.198;2023-06-22T10:49:01;92508.50;;;27.33;60.27
37206;BME280;23099;42.636;23.198;2023-06-22T10:51:28;92508.38;;;27.46;55.70
37206;BME280;23099;42.636;23.198;2023-06-22T10:53:56;92496.81;;;27.51;54.44
37206;BME280;23099;42.636;23.198;2023-06-22T10:56:24;92493.81;;;27.67;53.60
37206;BME280;23099;42.636;23.198;2023-06-22T10:58:51;92497.03;;;27.84;53.05
37206;BME280;23099;42.636;23.198;2023-06-22T11:01:18;92504.94;;;28.00;52.00
37206;BME280;23099;42.636;23.198;2023-06-22T11:03:44;92500.56;;;28.21;50.86
37206;BME280;23099;42.636;23.198;2023-06-22T11:06:11;92496.09;;;28.33;52.92
37206;BME280;23099;42.636;23.198;2023-06-22T11:08:38;92489.97;;;28.47;51.19
37206;BME280;23099;42.636;23.198;2023-06-22T11:11:04;92497.59;;;28.52;53.62
37206;BME280;23099;42.636;23.198;2023-06-22T11:13:32;92500.91;;;28.74;51.60
37206;BME280;23099;42.636;23.198;2023-06-22T11:15:59;92495.53;;;28.89;49.67
37206;BME280;23099;42.636;23.198;2023-06-22T11:18:25;92500.81;;;29.02;44.65
37206;BME280;23099;42.636;23.198;2023-06-22T11:20:52;92500.16;;;29.16;47.11
37206;BME280;23099;42.636;23.198;2023-06-22T11:23:19;92488.38;;;29.15;46.27
37206;BME280;23099;42.636;23.198;2023-06-22T11:25:45;92485.13;;;29.26;41.80
37206;BME280;23099;42.636;23.198;2023-06-22T11:28:12;92493.50;;;29.32;47.59
37206;BME280;23099;42.636;23.198;2023-06-22T11:30:40;92482.13;;;29.48;49.07
37206;BME280;23099;42.636;23.198;2023-06-22T11:33:07;92483.13;;;29.60;45.26
37206;BME280;23099;42.636;23.198;2023-06-22T11:35:34;92479.56;;;29.68;47.16
37206;BME280;23099;42.636;23.198;2023-06-22T11:38:01;92482.06;;;29.81;46.90
37206;BME280;23099;42.636;23.198;2023-06-22T11:40:28;92473.53;;;29.94;49.83
37206;BME280;23099;42.636;23.198;2023-06-22T11:42:55;92461.91;;;29.99;47.90
37206;BME280;23099;42.636;23.198;2023-06-22T11:45:22;92470.25;;;30.04;47.04
37206;BME280;23099;42.636;23.198;2023-06-22T11:47:50;92471.59;;;30.09;42.20
37206;BME280;23099;42.636;23.198;2023-06-22T11:50:17;92469.72;;;30.15;42.47
37206;BME280;23099;42.636;23.198;2023-06-22T11:52:43;92461.06;;;30.22;44.95
37206;BME280;23099;42.636;23.198;2023-06-22T11:55:10;92465.53;;;30.19;41.42
37206;BME280;23099;42.636;23.198;2023-06-22T11:57:38;92466.59;;;30.22;40.59
37206;BME280;23099;42.636;23.198;2023-06-22T12:00:06;92460.97;;;30.16;44.02
37206;BME280;23099;42.636;23.198;2023-06-22T12:02:40;92463.19;;;30.27;45.24
37206;BME280;23099;42.636;23.198;2023-06-22T12:05:08;92461.09;;;30.37;42.75
37206;BME280;23099;42.636;23.198;2023-06-22T12:07:35;92474.75;;;30.31;45.51
37206;BME280;23099;42.636;23.198;2023-06-22T12:10:03;92473.34;;;30.21;42.76
37206;BME280;23099;42.636;23.198;2023-06-22T12:12:30;92478.00;;;29.91;43.71
37206;BME280;23099;42.636;23.198;2023-06-22T12:14:56;92480.03;;;29.67;46.40
37206;BME280;23099;42.636;23.198;2023-06-22T12:17:23;92499.91;;;29.38;47.87
37206;BME280;23099;42.636;23.198;2023-06-22T12:19:50;92511.38;;;29.03;50.03
37206;BME280;23099;42.636;23.198;2023-06-22T12:22:18;92510.06;;;28.71;51.68
37206;BME280;23099;42.636;23.198;2023-06-22T12:24:44;92521.75;;;28.30;52.36
37206;BME280;23099;42.636;23.198;2023-06-22T12:27:11;92528.47;;;27.92;58.25
37206;BME280;23099;42.636;23.198;2023-06-22T12:29:38;92527.63;;;27.55;61.76
37206;BME280;23099;42.636;23.198;2023-06-22T12:32:05;92531.91;;;27.07;65.43
37206;BME280;23099;42.636;23.198;2023-06-22T12:34:31;92535.16;;;26.62;69.76
37206;BME280;23099;42.636;23.198;2023-06-22T12:36:58;92544.31;;;26.02;72.71
37206;BME280;23099;42.636;23.198;2023-06-22T12:39:26;92560.28;;;25.57;75.77
37206;BME280;23099;42.636;23.198;2023-06-22T12:41:53;92550.47;;;24.83;76.60
37206;BME280;23099;42.636;23.198;2023-06-22T12:44:19;92543.41;;;24.44;78.09
37206;BME280;23099;42.636;23.198;2023-06-22T12:46:46;92538.28;;;24.17;83.01